sensor_id;sensor_type;location;lat;lon;timestamp;pressure;altitude;pressure_sealevel;temperature;humidity
46778;BME280;32536;47.128;8.746;2022-07-04T00:01:41;91983.81;;;23.05;46.53
46778;BME280;32536;47.128;8.746;2022-07-04T00:04:08;91984.56;;;23.05;46.65
46778;BME280;32536;47.128;8.746;2022-07-04T00:06:35;91983.53;;;23.02;46.65
46778;BME280;32536;47.128;8.746;2022-07-04T00:09:02;91985.50;;;23.02;46.59
46778;BME280;32536;47.128;8.746;2022-07-04T00:11:29;91978.94;;;22.94;46.76
46778;BME280;32536;47.128;8.746;2022-07-04T00:13:55;91982.81;;;22.87;46.50
46778;BME280;32536;47.128;8.746;2022-07-04T00:16:22;91970.94;;;22.75;46.76
46778;BME280;32536;47.128;8.746;2022-07-04T00:18:49;91968.84;;;22.64;46.85
46778;BME280;32536;47.128;8.746;2022-07-04T00:21:16;91963.94;;;22.53;46.78
46778;BME280;32536;47.128;8.746;2022-07-04T00:23:43;91967.44;;;22.39;47.00
46778;BME280;32536;47.128;8.746;2022-07-04T00:26:09;91980.66;;;22.31;47.15
46778;BME280;32536;47.128;8.746;2022-07-04T00:28:36;91986.97;;;22.22;47.14
46778;BME280;32536;47.128;8.746;2022-07-04T00:31:03;91986.97;;;22.07;47.60
46778;BME280;32536;47.128;8.746;2022-07-04T00:33:30;91993.34;;;21.89;47.89
46778;BME280;32536;47.128;8.746;2022-07-04T00:35:56;91991.94;;;21.79;47.52
46778;BME280;32536;47.128;8.746;2022-07-04T00:38:23;91988.53;;;21.69;47.98
46778;BME280;32536;47.128;8.746;2022-07-04T00:40:50;91989.94;;;21.55;48.15
46778;BME280;32536;47.128;8.746;2022-07-04T00:43:24;91990.66;;;21.41;50.32
46778;BME280;32536;47.128;8.746;2022-07-04T00:45:52;91979.38;;;21.33;48.34
46778;BME280;32536;47.128;8.746;2022-07-04T00:48:19;91980.41;;;21.36;48.16
46778;BME280;32536;47.128;8.746;2022-07-04T00:50:47;91981.75;;;21.40;48.40
46778;BME280;32536;47.128;8.746;2022-07-04T00:53:14;91975.81;;;21.42;48.40
46778;BME280;32536;47.128;8.746;2022-07-04T00:55:42;91982.47;;;21.41;48.58
46778;BME280;32536;47.128;8.746;2022-07-04T00:58:11;91981.63;;;21.35;48.97
46778;BME280;32536;47.128;8.746;2022-07-04T01:00:39;91983.31;;;21.32;48.66
46778;BME280;32536;47.128;8.746;2022-07-04T01:03:06;91984.06;;;21.33;48.55
46778;BME280;32536;47.128;8.746;2022-07-04T01:05:33;91981.16;;;21.36;48.12
46778;BME280;32536;47.128;8.746;2022-07-04T01:08:00;91978.53;;;21.42;48.24
46778;BME280;32536;47.128;8.746;2022-07-04T01:10:27;91981.38;;;21.48;48.16
46778;BME280;32536;47.128;8.746;2022-07-04T01:12:54;91979.81;;;21.56;48.01
46778;BME280;32536;47.128;8.746;2022-07-04T01:15:21;91981.19;;;21.61;48.06
46778;BME280;32536;47.128;8.746;2022-07-04T01:18:06;91976.47;;;21.61;48.90
46778;BME280;32536;47.128;8.746;2022-07-04T01:20:35;91984.47;;;21.65;48.16
46778;BME280;32536;47.128;8.746;2022-07-04T01:23:03;91981.28;;;21.66;48.11
46778;BME280;32536;47.128;8.746;2022-07-04T01:25:31;91982.31;;;21.69;48.17
46778;BME280;32536;47.128;8.746;2022-07-04T01:27:59;91982.59;;;21.71;48.19
46778;BME280;32536;47.128;8.746;2022-07-04T01:30:27;91976.97;;;21.74;47.96
46778;BME280;32536;47.128;8.746;2022-07-04T01:32:55;91978.31;;;21.79;48.13
46778;BME280;32536;47.128;8.746;2022-07-04T01:35:23;91972.94;;;21.85;47.88
46778;BME280;32536;47.128;8.746;2022-07-04T01:37:50;91975.59;;;21.94;47.88
46778;BME280;32536;47.128;8.746;2022-07-04T01:40:17;91962.31;;;22.02;47.70
46778;BME280;32536;47.128;8.746;2022-07-04T01:42:45;91955.47;;;22.06;47.80
46778;BME280;32536;47.128;8.746;2022-07-04T01:45:12;91961.22;;;22.09;47.52
46778;BME280;32536;47.128;8.746;2022-07-04T01:47:39;91960.25;;;22.12;47.70
46778;BME280;32536;47.128;8.746;2022-07-04T01:50:08;91972.41;;;22.11;47.70
46778;BME280;32536;47.128;8.746;2022-07-04T01:52:38;91983.03;;;22.09;47.72
46778;BME280;32536;47.128;8.746;2022-07-04T01:55:07;91990.63;;;22.04;47.54
46778;BME280;32536;47.128;8.746;2022-07-04T01:57:35;91999.41;;;22.09;47.45
46778;BME280;32536;47.128;8.746;2022-07-04T02:00:07;92016.31;;;22.13;47.72
46778;BME280;32536;47.128;8.746;2022-07-04T02:02:55;92022.44;;;22.22;47.32
46778;BME280;32536;47.128;8.746;2022-07-04T02:05:22;92023.47;;;22.25;47.19
46778;BME280;32536;47.128;8.746;2022-07-04T02:07:50;92007.28;;;22.21;47.43
46778;BME280;32536;47.128;8.746;2022-07-04T02:10:18;92011.34;;;22.11;47.45
46778;BME280;32536;47.128;8.746;2022-07-04T02:12:44;92022.63;;;22.04;47.63
46778;BME280;32536;47.128;8.746;2022-07-04T02:15:35;92060.44;;;21.96;48.71
46778;BME280;32536;47.128;8.746;2022-07-04T02:18:10;92080.56;;;21.99;50.37
46778;BME280;32536;47.128;8.746;2022-07-04T02:20:37;92093.44;;;21.98;48.48
46778;BME280;32536;47.128;8.746;2022-07-04T02:23:05;92090.88;;;21.95;48.13
46778;BME280;32536;47.128;8.746;2022-07-04T02:25:32;92108.38;;;21.88;48.46
46778;BME280;32536;47.128;8.746;2022-07-04T02:27:59;92120.66;;;21.83;48.25
46778;BME280;32536;47.128;8.746;2022-07-04T02:30:26;92114.03;;;21.75;48.24
46778;BME280;32536;47.128;8.746;2022-07-04T02:32:53;92132.31;;;21.59;48.78
46778;BME280;32536;47.128;8.746;2022-07-04T02:35:20;92153.97;;;21.54;49.13
46778;BME280;32536;47.128;8.746;2022-07-04T02:37:46;92155.34;;;21.49;49.61
46778;BME280;32536;47.128;8.746;2022-07-04T02:40:13;92174.91;;;21.48;50.10
46778;BME280;32536;47.128;8.746;2022-07-04T02:42:40;92185.38;;;21.40;50.68
46778;BME280;32536;47.128;8.746;2022-07-04T02:45:07;92180.13;;;21.27;52.27
46778;BME280;32536;47.128;8.746;2022-07-04T02:47:34;92195.84;;;21.32;50.99
46778;BME280;32536;47.128;8.746;2022-07-04T02:50:02;92209.47;;;21.32;52.26
46778;BME280;32536;47.128;8.746;2022-07-04T02:52:30;92213.56;;;21.27;52.41
46778;BME280;32536;47.128;8.746;2022-07-04T02:54:57;92219.63;;;21.22;52.12
46778;BME280;32536;47.128;8.746;2022-07-04T02:57:24;92222.81;;;21.21;52.04
46778;BME280;32536;47.128;8.746;2022-07-04T02:59:51;92231.47;;;21.19;51.74
46778;BME280;32536;47.128;8.746;2022-07-04T03:02:18;92219.22;;;21.15;52.77
46778;BME280;32536;47.128;8.746;2022-07-04T03:04:45;92225.72;;;21.08;53.28
46778;BME280;32536;47.128;8.746;2022-07-04T03:07:12;92223.91;;;21.05;53.10
46778;BME280;32536;47.128;8.746;2022-07-04T03:09:39;92228.94;;;20.97;54.15
46778;BME280;32536;47.128;8.746;2022-07-04T03:12:06;92236.50;;;20.84;54.81
46778;BME280;32536;47.128;8.746;2022-07-04T03:14:34;92236.34;;;20.78;53.53
46778;BME280;32536;47.128;8.746;2022-07-04T03:17:00;92226.22;;;20.78;53.92
46778;BME280;32536;47.128;8.746;2022-07-04T03:19:27;92231.97;;;20.81;53.58
46778;BME280;32536;47.128;8.746;2022-07-04T03:21:54;92229.09;;;20.84;52.82
46778;BME280;32536;47.128;8.746;2022-07-04T03:24:21;92222.28;;;20.89;52.65
46778;BME280;32536;47.128;8.746;2022-07-04T03:26:47;92209.88;;;20.97;51.73
46778;BME280;32536;47.128;8.746;2022-07-04T03:29:14;92208.78;;;21.04;51.54
46778;BME280;32536;47.128;8.746;2022-07-04T03:31:41;92218.00;;;21.06;51.38
46778;BME280;32536;47.128;8.746;2022-07-04T03:34:08;92209.69;;;21.10;51.25
46778;BME280;32536;47.128;8.746;2022-07-04T03:36:34;92202.72;;;21.09;51.38
46778;BME280;32536;47.128;8.746;2022-07-04T03:39:02;92188.03;;;21.06;51.31
46778;BME280;32536;47.128;8.746;2022-07-04T03:41:29;92195.47;;;21.06;51.32
46778;BME280;32536;47.128;8.746;2022-07-04T03:43:56;92180.34;;;21.05;51.54
46778;BME280;32536;47.128;8.746;2022-07-04T03:46:23;92197.44;;;21.05;52.00
46778;BME280;32536;47.128;8.746;2022-07-04T03:48:49;92197.28;;;21.09;51.70
46778;BME280;32536;47.128;8.746;2022-07-04T03:51:16;92172.44;;;21.16;51.56
46778;BME280;32536;47.128;8.746;2022-07-04T03:53:43;92171.38;;;21.23;51.47
46778;BME280;32536;47.128;8.746;2022-07-04T03:56:10;92166.66;;;21.23;51.52
46778;BME280;32536;47.128;8.746;2022-07-04T03:58:37;92167.44;;;21.24;51.83
46778;BME280;32536;47.128;8.746;2022-07-04T04:01:03;92158.50;;;21.23;52.85
46778;BME280;32536;47.128;8.746;2022-07-04T04:03:30;92155.03;;;21.23;52.32
46778;BME280;32536;47.128;8.746;2022-07-04T04:06:16;92150.16;;;21.27;51.84
46778;BME280;32536;47.128;8.746;2022-07-04T04:08:42;92141.50;;;21.28;51.74
46778;BME280;32536;47.128;8.746;2022-07-04T04:11:09;92125.00;;;21.32;51.66
46778;BME280;32536;47.128;8.746;2022-07-04T04:13:36;92106.97;;;21.35;52.38
46778;BME280;32536;47.128;8.746;2022-07-04T04:16:03;92097.31;;;21.34;52.29
46778;BME280;32536;47.128;8.746;2022-07-04T04:18:30;92083.69;;;21.34;52.70
46778;BME280;32536;47.128;8.746;2022-07-04T04:20:57;92083.06;;;21.30;53.23
46778;BME280;32536;47.128;8.746;2022-07-04T04:23:23;92090.22;;;21.27;53.24
46778;BME280;32536;47.128;8.746;2022-07-04T04:25:50;92075.25;;;21.22;53.35
46778;BME280;32536;47.128;8.746;2022-07-04T04:28:17;92078.72;;;21.23;52.68
46778;BME280;32536;47.128;8.746;2022-07-04T04:30:44;92084.75;;;21.27;52.60
46778;BME280;32536;47.128;8.746;2022-07-04T04:33:10;92079.72;;;21.35;52.07
46778;BME280;32536;47.128;8.746;2022-07-04T04:35:37;92076.38;;;21.40;51.68
46778;BME280;32536;47.128;8.746;2022-07-04T04:38:04;92082.88;;;21.42;51.97
46778;BME280;32536;47.128;8.746;2022-07-04T04:40:31;92093.13;;;21.48;51.91
46778;BME280;32536;47.128;8.746;2022-07-04T04:42:58;92105.06;;;21.50;52.03
46778;BME280;32536;47.128;8.746;2022-07-04T04:45:24;92106.88;;;21.53;51.94
46778;BME280;32536;47.128;8.746;2022-07-04T04:47:51;92120.53;;;21.53;52.04
46778;BME280;32536;47.128;8.746;2022-07-04T04:50:20;92137.63;;;21.54;52.60
46778;BME280;32536;47.128;8.746;2022-07-04T04:52:47;92157.34;;;21.49;52.46
46778;BME280;32536;47.128;8.746;2022-07-04T04:55:13;92166.47;;;21.36;53.05
46778;BME280;32536;47.128;8.746;2022-07-04T04:57:40;92168.63;;;21.23;52.52
46778;BME280;32536;47.128;8.746;2022-07-04T05:00:08;92175.47;;;21.18;52.34
46778;BME280;32536;47.128;8.746;2022-07-04T05:02:35;92175.94;;;21.17;52.50
46778;BME280;32536;47.128;8.746;2022-07-04T05:05:02;92178.66;;;21.07;52.64
46778;BME280;32536;47.128;8.746;2022-07-04T05:07:28;92185.47;;;21.03;52.89
46778;BME280;32536;47.128;8.746;2022-07-04T05:09:55;92179.00;;;21.00;52.68
46778;BME280;32536;47.128;8.746;2022-07-04T05:12:25;92174.31;;;21.01;52.84
46778;BME280;32536;47.128;8.746;2022-07-04T05:14:53;92169.47;;;20.95;53.58
46778;BME280;32536;47.128;8.746;2022-07-04T05:17:20;92173.72;;;20.87;53.54
46778;BME280;32536;47.128;8.746;2022-07-04T05:19:47;92166.31;;;20.78;53.49
46778;BME280;32536;47.128;8.746;2022-07-04T05:22:14;92161.03;;;20.75;54.01
46778;BME280;32536;47.128;8.746;2022-07-04T05:24:41;92165.84;;;20.71;53.95
46778;BME280;32536;47.128;8.746;2022-07-04T05:27:08;92159.34;;;20.68;53.69
46778;BME280;32536;47.128;8.746;2022-07-04T05:29:35;92155.44;;;20.69;53.67
46778;BME280;32536;47.128;8.746;2022-07-04T05:32:03;92159.19;;;20.62;54.12
46778;BME280;32536;47.128;8.746;2022-07-04T05:34:30;92152.72;;;20.51;54.62
46778;BME280;32536;47.128;8.746;2022-07-04T05:36:57;92152.56;;;20.45;54.50
46778;BME280;32536;47.128;8.746;2022-07-04T05:39:24;92159.38;;;20.40;54.99
46778;BME280;32536;47.128;8.746;2022-07-04T05:41:51;92164.22;;;20.36;54.12
46778;BME280;32536;47.128;8.746;2022-07-04T05:44:17;92156.34;;;20.38;54.19
46778;BME280;32536;47.128;8.746;2022-07-04T05:46:44;92147.13;;;20.45;54.11
46778;BME280;32536;47.128;8.746;2022-07-04T05:49:11;92134.75;;;20.53;53.79
46778;BME280;32536;47.128;8.746;2022-07-04T05:51:38;92129.25;;;20.62;53.50
46778;BME280;32536;47.128;8.746;2022-07-04T05:54:05;92143.50;;;20.67;53.81
46778;BME280;32536;47.128;8.746;2022-07-04T05:56:31;92166.59;;;20.71;54.11
46778;BME280;32536;47.128;8.746;2022-07-04T05:58:58;92187.50;;;20.74;53.83
46778;BME280;32536;47.128;8.746;2022-07-04T06:01:25;92186.16;;;20.79;53.86
46778;BME280;32536;47.128;8.746;2022-07-04T06:03:52;92174.47;;;20.88;53.42
46778;BME280;32536;47.128;8.746;2022-07-04T06:06:18;92171.13;;;20.93;53.54
46778;BME280;32536;47.128;8.746;2022-07-04T06:08:45;92164.63;;;21.00;53.42
46778;BME280;32536;47.128;8.746;2022-07-04T06:11:12;92161.84;;;21.09;53.23
46778;BME280;32536;47.128;8.746;2022-07-04T06:13:40;92153.53;;;21.13;53.49
46778;BME280;32536;47.128;8.746;2022-07-04T06:16:07;92148.84;;;21.13;53.41
46778;BME280;32536;47.128;8.746;2022-07-04T06:18:34;92153.38;;;21.16;53.70
46778;BME280;32536;47.128;8.746;2022-07-04T06:21:01;92151.69;;;21.19;53.47
46778;BME280;32536;47.128;8.746;2022-07-04T06:23:27;92142.78;;;21.18;53.62
46778;BME280;32536;47.128;8.746;2022-07-04T06:25:54;92145.50;;;21.18;53.70
46778;BME280;32536;47.128;8.746;2022-07-04T06:28:21;92146.88;;;21.14;53.81
46778;BME280;32536;47.128;8.746;2022-07-04T06:30:48;92130.22;;;21.11;54.34
46778;BME280;32536;47.128;8.746;2022-07-04T06:33:15;92136.56;;;21.18;54.24
46778;BME280;32536;47.128;8.746;2022-07-04T06:35:41;92134.44;;;21.22;54.05
46778;BME280;32536;47.128;8.746;2022-07-04T06:38:18;92127.44;;;21.30;54.55
46778;BME280;32536;47.128;8.746;2022-07-04T06:40:46;92111.97;;;21.36;54.07
46778;BME280;32536;47.128;8.746;2022-07-04T06:43:14;92110.88;;;21.43;53.74
46778;BME280;32536;47.128;8.746;2022-07-04T06:45:41;92095.84;;;21.48;53.78
46778;BME280;32536;47.128;8.746;2022-07-04T06:48:08;92087.50;;;21.51;53.72
46778;BME280;32536;47.128;8.746;2022-07-04T06:50:35;92083.41;;;21.56;53.60
46778;BME280;32536;47.128;8.746;2022-07-04T06:53:04;92079.50;;;21.57;54.07
46778;BME280;32536;47.128;8.746;2022-07-04T06:55:32;92071.88;;;21.61;53.82
46778;BME280;32536;47.128;8.746;2022-07-04T06:58:03;92061.44;;;21.59;53.55
46778;BME280;32536;47.128;8.746;2022-07-04T07:00:30;92062.66;;;21.58;53.91
46778;BME280;32536;47.128;8.746;2022-07-04T07:02:58;92052.81;;;21.52;54.17
46778;BME280;32536;47.128;8.746;2022-07-04T07:05:26;92041.19;;;21.51;53.91
46778;BME280;32536;47.128;8.746;2022-07-04T07:07:54;92028.03;;;21.50;53.87
46778;BME280;32536;47.128;8.746;2022-07-04T07:10:21;92011.94;;;21.52;53.79
46778;BME280;32536;47.128;8.746;2022-07-04T07:12:48;92005.56;;;21.55;53.79
46778;BME280;32536;47.128;8.746;2022-07-04T07:15:15;91989.81;;;21.59;53.53
46778;BME280;32536;47.128;8.746;2022-07-04T07:17:42;91968.84;;;21.65;53.54
46778;BME280;32536;47.128;8.746;2022-07-04T07:20:09;91958.25;;;21.67;53.54
46778;BME280;32536;47.128;8.746;2022-07-04T07:22:37;91954.59;;;21.70;53.58
46778;BME280;32536;47.128;8.746;2022-07-04T07:25:04;91942.44;;;21.71;53.97
46778;BME280;32536;47.128;8.746;2022-07-04T07:27:31;91937.41;;;21.79;53.93
46778;BME280;32536;47.128;8.746;2022-07-04T07:29:58;91928.09;;;21.86;54.00
46778;BME280;32536;47.128;8.746;2022-07-04T07:32:24;91929.88;;;21.89;54.02
46778;BME280;32536;47.128;8.746;2022-07-04T07:34:51;91931.94;;;21.94;53.90
46778;BME280;32536;47.128;8.746;2022-07-04T07:37:18;91933.09;;;22.02;53.92
46778;BME280;32536;47.128;8.746;2022-07-04T07:39:48;91936.19;;;22.10;54.01
46778;BME280;32536;47.128;8.746;2022-07-04T07:42:16;91934.97;;;22.11;53.72
46778;BME280;32536;47.128;8.746;2022-07-04T07:44:43;91942.66;;;22.13;53.47
46778;BME280;32536;47.128;8.746;2022-07-04T07:47:13;91955.84;;;22.14;53.69
46778;BME280;32536;47.128;8.746;2022-07-04T07:49:44;91956.59;;;22.15;54.42
46778;BME280;32536;47.128;8.746;2022-07-04T07:52:14;91968.66;;;22.23;53.75
46778;BME280;32536;47.128;8.746;2022-07-04T07:54:41;91966.28;;;22.31;53.47
46778;BME280;32536;47.128;8.746;2022-07-04T07:57:08;91970.81;;;22.34;53.32
46778;BME280;32536;47.128;8.746;2022-07-04T07:59:35;91975.31;;;22.37;53.43
46778;BME280;32536;47.128;8.746;2022-07-04T08:02:02;91973.81;;;22.36;53.36
46778;BME280;32536;47.128;8.746;2022-07-04T08:04:29;91977.88;;;22.41;53.29
46778;BME280;32536;47.128;8.746;2022-07-04T08:07:05;91981.63;;;22.43;53.37
46778;BME280;32536;47.128;8.746;2022-07-04T08:09:34;91977.31;;;22.51;53.46
46778;BME280;32536;47.128;8.746;2022-07-04T08:12:02;91979.94;;;22.61;53.47
46778;BME280;32536;47.128;8.746;2022-07-04T08:14:30;91978.78;;;22.67;53.35
46778;BME280;32536;47.128;8.746;2022-07-04T08:16:58;91979.81;;;22.70;53.23
46778;BME280;32536;47.128;8.746;2022-07-04T08:19:26;91984.53;;;22.69;53.29
46778;BME280;32536;47.128;8.746;2022-07-04T08:21:53;91988.22;;;22.66;53.46
46778;BME280;32536;47.128;8.746;2022-07-04T08:24:20;91996.78;;;22.59;53.45
46778;BME280;32536;47.128;8.746;2022-07-04T08:26:48;91995.28;;;22.58;53.43
46778;BME280;32536;47.128;8.746;2022-07-04T08:29:14;91999.50;;;22.59;53.44
46778;BME280;32536;47.128;8.746;2022-07-04T08:31:43;92002.06;;;22.63;53.25
46778;BME280;32536;47.128;8.746;2022-07-04T08:34:10;91998.38;;;22.66;53.21
46778;BME280;32536;47.128;8.746;2022-07-04T08:36:36;91993.00;;;22.71;53.02
46778;BME280;32536;47.128;8.746;2022-07-04T08:39:03;91991.13;;;22.78;53.17
46778;BME280;32536;47.128;8.746;2022-07-04T08:41:39;91993.19;;;22.83;52.90
46778;BME280;32536;47.128;8.746;2022-07-04T08:44:10;91998.25;;;22.90;52.79
46778;BME280;32536;47.128;8.746;2022-07-04T08:46:41;91992.84;;;22.96;52.80
46778;BME280;32536;47.128;8.746;2022-07-04T08:49:14;91998.41;;;23.01;52.81
46778;BME280;32536;47.128;8.746;2022-07-04T08:51:51;92006.13;;;23.03;52.83
46778;BME280;32536;47.128;8.746;2022-07-04T08:54:22;92017.81;;;23.03;52.67
46778;BME280;32536;47.128;8.746;2022-07-04T08:57:09;92021.97;;;22.99;52.84
46778;BME280;32536;47.128;8.746;2022-07-04T08:59:57;92027.09;;;22.91;53.18
46778;BME280;32536;47.128;8.746;2022-07-04T09:02:27;92024.34;;;22.91;53.28
46778;BME280;32536;47.128;8.746;2022-07-04T09:04:55;92030.66;;;22.97;53.28
46778;BME280;32536;47.128;8.746;2022-07-04T09:07:21;92026.75;;;23.04;53.10
46778;BME280;32536;47.128;8.746;2022-07-04T09:09:49;92023.00;;;23.01;53.02
46778;BME280;32536;47.128;8.746;2022-07-04T09:12:16;92017.72;;;22.98;53.05
46778;BME280;32536;47.128;8.746;2022-07-04T09:14:43;92028.09;;;22.94;53.30
46778;BME280;32536;47.128;8.746;2022-07-04T09:17:10;92037.44;;;22.87;53.43
46778;BME280;32536;47.128;8.746;2022-07-04T09:19:36;92031.91;;;22.81;53.79
46778;BME280;32536;47.128;8.746;2022-07-04T09:22:04;92045.47;;;22.76;53.86
46778;BME280;32536;47.128;8.746;2022-07-04T09:24:44;92040.38;;;22.68;53.97
46778;BME280;32536;47.128;8.746;2022-07-04T09:27:12;92045.94;;;22.59;54.00
46778;BME280;32536;47.128;8.746;2022-07-04T09:29:53;92049.63;;;22.56;54.19
46778;BME280;32536;47.128;8.746;2022-07-04T09:35:18;92050.34;;;22.57;53.59
46778;BME280;32536;47.128;8.746;2022-07-04T09:37:54;92046.13;;;22.55;53.69
46778;BME280;32536;47.128;8.746;2022-07-04T09:43:24;92039.06;;;22.64;53.58
46778;BME280;32536;47.128;8.746;2022-07-04T09:45:57;92043.84;;;22.69;53.54
46778;BME280;32536;47.128;8.746;2022-07-04T09:48:26;92034.81;;;22.78;53.37
46778;BME280;32536;47.128;8.746;2022-07-04T09:51:13;92034.69;;;22.87;53.30
46778;BME280;32536;47.128;8.746;2022-07-04T09:53:40;92029.59;;;22.95;53.32
46778;BME280;32536;47.128;8.746;2022-07-04T09:56:06;92031.69;;;23.00;53.34
46778;BME280;32536;47.128;8.746;2022-07-04T09:58:33;92028.94;;;23.00;53.29
46778;BME280;32536;47.128;8.746;2022-07-04T10:01:01;92028.56;;;23.07;53.27
46778;BME280;32536;47.128;8.746;2022-07-04T10:03:31;92023.63;;;23.11;52.75
46778;BME280;32536;47.128;8.746;2022-07-04T10:06:04;92035.72;;;23.20;52.90
46778;BME280;32536;47.128;8.746;2022-07-04T10:08:33;92034.09;;;23.28;52.79
46778;BME280;32536;47.128;8.746;2022-07-04T10:14:42;92026.44;;;23.53;52.66
46778;BME280;32536;47.128;8.746;2022-07-04T10:17:09;92027.28;;;23.59;52.67
46778;BME280;32536;47.128;8.746;2022-07-04T10:19:35;92019.19;;;23.70;52.58
46778;BME280;32536;47.128;8.746;2022-07-04T10:22:03;92008.41;;;23.81;52.49
46778;BME280;32536;47.128;8.746;2022-07-04T10:24:30;92016.94;;;23.89;52.45
46778;BME280;32536;47.128;8.746;2022-07-04T10:26:57;92008.06;;;23.94;52.55
46778;BME280;32536;47.128;8.746;2022-07-04T10:29:24;92011.59;;;24.01;52.16
46778;BME280;32536;47.128;8.746;2022-07-04T10:31:51;92009.69;;;24.07;52.14
46778;BME280;32536;47.128;8.746;2022-07-04T10:34:18;92016.44;;;24.11;52.17
46778;BME280;32536;47.128;8.746;2022-07-04T10:36:51;92000.09;;;24.17;51.64
46778;BME280;32536;47.128;8.746;2022-07-04T10:39:22;92000.94;;;24.29;51.98
46778;BME280;32536;47.128;8.746;2022-07-04T10:41:59;92001.28;;;24.37;52.18
46778;BME280;32536;47.128;8.746;2022-07-04T10:44:27;92002.13;;;24.49;51.99
46778;BME280;32536;47.128;8.746;2022-07-04T10:47:03;91999.41;;;24.54;51.78
46778;BME280;32536;47.128;8.746;2022-07-04T10:49:30;91996.25;;;24.61;52.01
46778;BME280;32536;47.128;8.746;2022-07-04T10:54:39;91990.41;;;24.74;51.98
46778;BME280;32536;47.128;8.746;2022-07-04T10:57:18;91979.97;;;24.78;51.88
46778;BME280;32536;47.128;8.746;2022-07-04T11:04:58;91982.59;;;24.99;51.84
46778;BME280;32536;47.128;8.746;2022-07-04T11:21:17;91983.53;;;25.28;50.92
46778;BME280;32536;47.128;8.746;2022-07-04T11:23:49;91982.78;;;25.33;51.39
46778;BME280;32536;47.128;8.746;2022-07-04T11:26:16;91972.91;;;25.41;51.27
46778;BME280;32536;47.128;8.746;2022-07-04T11:28:42;91975.91;;;25.49;51.13
46778;BME280;32536;47.128;8.746;2022-07-04T11:31:09;91968.69;;;25.52;51.35
46778;BME280;32536;47.128;8.746;2022-07-04T11:33:37;91968.19;;;25.53;51.27
46778;BME280;32536;47.128;8.746;2022-07-04T11:36:17;91973.72;;;25.59;51.20
46778;BME280;32536;47.128;8.746;2022-07-04T11:41:34;91961.25;;;25.69;51.17
46778;BME280;32536;47.128;8.746;2022-07-04T11:44:23;91972.78;;;25.79;50.85
46778;BME280;32536;47.128;8.746;2022-07-04T11:47:25;91962.31;;;25.83;50.59
46778;BME280;32536;47.128;8.746;2022-07-04T11:50:12;91972.56;;;25.88;50.85
46778;BME280;32536;47.128;8.746;2022-07-04T11:52:43;91968.06;;;25.85;51.07
46778;BME280;32536;47.128;8.746;2022-07-04T11:55:13;91962.31;;;25.83;50.77
46778;BME280;32536;47.128;8.746;2022-07-04T11:57:43;91962.56;;;25.80;51.15
46778;BME280;32536;47.128;8.746;2022-07-04T12:00:14;91962.53;;;25.74;50.82
46778;BME280;32536;47.128;8.746;2022-07-04T12:02:47;91960.78;;;25.71;50.85
46778;BME280;32536;47.128;8.746;2022-07-04T12:05:16;91960.25;;;25.67;50.81
46778;BME280;32536;47.128;8.746;2022-07-04T12:07:48;91964.75;;;25.59;50.85
46778;BME280;32536;47.128;8.746;2022-07-04T12:10:23;91958.19;;;25.39;50.63
46778;BME280;32536;47.128;8.746;2022-07-04T12:12:58;91952.88;;;25.30;50.54
46778;BME280;32536;47.128;8.746;2022-07-04T12:21:15;91964.47;;;25.13;50.70
46778;BME280;32536;47.128;8.746;2022-07-04T12:23:52;91962.69;;;25.04;50.96
46778;BME280;32536;47.128;8.746;2022-07-04T12:26:20;91952.44;;;24.99;51.33
46778;BME280;32536;47.128;8.746;2022-07-04T12:28:47;91948.47;;;25.00;51.21
46778;BME280;32536;47.128;8.746;2022-07-04T12:31:14;91941.00;;;25.01;51.18
46778;BME280;32536;47.128;8.746;2022-07-04T12:33:54;91944.72;;;24.98;51.23
46778;BME280;32536;47.128;8.746;2022-07-04T12:36:21;91940.03;;;25.04;51.39
46778;BME280;32536;47.128;8.746;2022-07-04T12:38:48;91941.75;;;25.01;51.45
46778;BME280;32536;47.128;8.746;2022-07-04T12:41:15;91932.00;;;24.94;51.29
46778;BME280;32536;47.128;8.746;2022-07-04T12:46:13;91908.00;;;24.78;51.08
46778;BME280;32536;47.128;8.746;2022-07-04T12:48:41;91913.16;;;24.70;51.13
46778;BME280;32536;47.128;8.746;2022-07-04T12:53:46;91905.84;;;24.61;51.19
46778;BME280;32536;47.128;8.746;2022-07-04T12:59:04;91904.34;;;24.60;50.90
46778;BME280;32536;47.128;8.746;2022-07-04T13:01:33;91899.66;;;24.61;50.89
46778;BME280;32536;47.128;8.746;2022-07-04T13:04:00;91896.41;;;24.62;50.80
46778;BME280;32536;47.128;8.746;2022-07-04T13:06:28;91893.75;;;24.68;50.85
46778;BME280;32536;47.128;8.746;2022-07-04T13:08:55;91884.81;;;24.73;50.89
46778;BME280;32536;47.128;8.746;2022-07-04T13:11:23;91888.56;;;24.76;50.66
46778;BME280;32536;47.128;8.746;2022-07-04T13:14:09;91889.09;;;24.86;50.52
46778;BME280;32536;47.128;8.746;2022-07-04T13:16:36;91883.66;;;24.97;50.86
46778;BME280;32536;47.128;8.746;2022-07-04T13:19:02;91884.22;;;25.07;50.68
46778;BME280;32536;47.128;8.746;2022-07-04T13:21:30;91869.53;;;25.16;50.69
46778;BME280;32536;47.128;8.746;2022-07-04T13:23:56;91877.56;;;25.25;50.68
46778;BME280;32536;47.128;8.746;2022-07-04T13:26:23;91881.06;;;25.31;49.66
46778;BME280;32536;47.128;8.746;2022-07-04T13:28:50;91879.41;;;25.45;50.28
46778;BME280;32536;47.128;8.746;2022-07-04T13:31:17;91891.69;;;25.61;50.04
46778;BME280;32536;47.128;8.746;2022-07-04T13:33:44;91898.69;;;25.73;50.23
46778;BME280;32536;47.128;8.746;2022-07-04T13:36:11;91893.47;;;25.81;50.04
46778;BME280;32536;47.128;8.746;2022-07-04T13:38:39;91889.50;;;25.88;50.05
46778;BME280;32536;47.128;8.746;2022-07-04T13:41:06;91893.00;;;25.94;49.56
46778;BME280;32536;47.128;8.746;2022-07-04T13:43:33;91905.22;;;25.99;49.43
46778;BME280;32536;47.128;8.746;2022-07-04T13:46:00;91913.22;;;26.02;49.39
46778;BME280;32536;47.128;8.746;2022-07-04T13:48:26;91914.69;;;26.03;49.38
46778;BME280;32536;47.128;8.746;2022-07-04T13:50:53;91911.47;;;26.05;49.49
46778;BME280;32536;47.128;8.746;2022-07-04T13:53:20;91907.50;;;26.12;49.42
46778;BME280;32536;47.128;8.746;2022-07-04T13:55:47;91892.78;;;26.15;49.29